sensor_id;sensor_type;location;lat;lon;timestamp;pressure;altitude;pressure_sealevel;temperature;humidity
21273;BME280;36726;52.328;10.552;2023-04-28T00:01:26;100776.41;;;7.54;55.11
21273;BME280;36726;52.328;10.552;2023-04-28T00:03:53;100772.88;;;7.53;55.68
21273;BME280;36726;52.328;10.552;2023-04-28T00:06:21;100764.13;;;7.53;55.45
21273;BME280;36726;52.328;10.552;2023-04-28T00:08:47;100759.63;;;7.50;55.43
21273;BME280;36726;52.328;10.552;2023-04-28T00:11:14;100759.59;;;7.49;55.59
21273;BME280;36726;52.328;10.552;2023-04-28T00:13:40;100755.16;;;7.48;55.33
21273;BME280;36726;52.328;10.552;2023-04-28T00:16:07;100750.69;;;7.44;55.97
21273;BME280;36726;52.328;10.552;2023-04-28T00:18:33;100746.25;;;7.43;55.77
21273;BME280;36726;52.328;10.552;2023-04-28T00:21:00;100742.69;;;7.41;55.10
21273;BME280;36726;52.328;10.552;2023-04-28T00:23:27;100740.88;;;7.38;55.55
21273;BME280;36726;52.328;10.552;2023-04-28T00:25:54;100737.34;;;7.38;56.04
21273;BME280;36726;52.328;10.552;2023-04-28T00:28:22;100738.25;;;7.38;55.65
21273;BME280;36726;52.328;10.552;2023-04-28T00:30:52;100738.28;;;7.40;55.71
21273;BME280;36726;52.328;10.552;2023-04-28T00:33:18;100736.59;;;7.42;55.54
21273;BME280;36726;52.328;10.552;2023-04-28T00:35:45;100734.91;;;7.44;55.60
21273;BME280;36726;52.328;10.552;2023-04-28T00:38:11;100728.78;;;7.45;55.73
21273;BME280;36726;52.328;10.552;2023-04-28T00:40:38;100727.09;;;7.47;55.90
21273;BME280;36726;52.328;10.552;2023-04-28T00:43:05;100719.22;;;7.48;55.66
21273;BME280;36726;52.328;10.552;2023-04-28T00:45:32;100731.59;;;7.51;56.25
21273;BME280;36726;52.328;10.552;2023-04-28T00:47:59;100721.13;;;7.54;56.07
21273;BME280;36726;52.328;10.552;2023-04-28T00:50:26;100710.69;;;7.57;56.02
21273;BME280;36726;52.328;10.552;2023-04-28T00:52:53;100713.41;;;7.60;55.59
21273;BME280;36726;52.328;10.552;2023-04-28T00:55:20;100714.34;;;7.62;56.45
21273;BME280;36726;52.328;10.552;2023-04-28T00:57:47;100712.63;;;7.64;55.84
21273;BME280;36726;52.328;10.552;2023-04-28T01:00:14;100711.81;;;7.66;55.70
21273;BME280;36726;52.328;10.552;2023-04-28T01:02:41;100703.09;;;7.67;56.06
21273;BME280;36726;52.328;10.552;2023-04-28T01:05:08;100710.16;;;7.70;55.74
21273;BME280;36726;52.328;10.552;2023-04-28T01:07:36;100703.19;;;7.72;55.80
21273;BME280;36726;52.328;10.552;2023-04-28T01:10:04;100700.63;;;7.75;55.89
21273;BME280;36726;52.328;10.552;2023-04-28T01:12:33;100698.03;;;7.76;56.11
21273;BME280;36726;52.328;10.552;2023-04-28T01:14:59;100699.88;;;7.79;56.05
21273;BME280;36726;52.328;10.552;2023-04-28T01:17:28;100692.03;;;7.82;55.84
21273;BME280;36726;52.328;10.552;2023-04-28T01:19:55;100692.94;;;7.82;56.07
21273;BME280;36726;52.328;10.552;2023-04-28T01:22:21;100691.25;;;7.84;55.61
21273;BME280;36726;52.328;10.552;2023-04-28T01:24:48;100691.25;;;7.84;55.63
21273;BME280;36726;52.328;10.552;2023-04-28T01:27:14;100690.38;;;7.85;55.60
21273;BME280;36726;52.328;10.552;2023-04-28T01:29:42;100683.34;;;7.84;55.83
21273;BME280;36726;52.328;10.552;2023-04-28T01:32:09;100680.69;;;7.83;55.79
21273;BME280;36726;52.328;10.552;2023-04-28T01:34:35;100673.56;;;7.80;55.66
21273;BME280;36726;52.328;10.552;2023-04-28T01:37:04;100677.06;;;7.79;55.68
21273;BME280;36726;52.328;10.552;2023-04-28T01:39:31;100679.69;;;7.78;55.68
21273;BME280;36726;52.328;10.552;2023-04-28T01:41:58;100669.06;;;7.76;56.05
21273;BME280;36726;52.328;10.552;2023-04-28T01:44:24;100667.28;;;7.74;55.65
21273;BME280;36726;52.328;10.552;2023-04-28T01:46:51;100661.94;;;7.71;56.04
21273;BME280;36726;52.328;10.552;2023-04-28T01:49:20;100658.41;;;7.70;56.09
21273;BME280;36726;52.328;10.552;2023-04-28T01:51:46;100659.25;;;7.69;56.11
21273;BME280;36726;52.328;10.552;2023-04-28T01:54:13;100664.47;;;7.68;55.91
21273;BME280;36726;52.328;10.552;2023-04-28T01:56:40;100656.56;;;7.68;56.01
21273;BME280;36726;52.328;10.552;2023-04-28T01:59:08;100656.56;;;7.68;55.89
21273;BME280;36726;52.328;10.552;2023-04-28T02:01:35;100653.94;;;7.68;55.75
21273;BME280;36726;52.328;10.552;2023-04-28T02:04:01;100653.09;;;7.69;55.90
21273;BME280;36726;52.328;10.552;2023-04-28T02:06:31;100654.88;;;7.70;55.62
21273;BME280;36726;52.328;10.552;2023-04-28T02:08:58;100644.34;;;7.70;55.92
21273;BME280;36726;52.328;10.552;2023-04-28T02:11:24;100639.97;;;7.70;55.66
21273;BME280;36726;52.328;10.552;2023-04-28T02:13:54;100642.66;;;7.72;55.31
21273;BME280;36726;52.328;10.552;2023-04-28T02:16:21;100626.88;;;7.73;55.59
21273;BME280;36726;52.328;10.552;2023-04-28T02:18:48;100635.69;;;7.74;55.53
21273;BME280;36726;52.328;10.552;2023-04-28T02:21:15;100625.22;;;7.77;55.79
21273;BME280;36726;52.328;10.552;2023-04-28T02:23:43;100626.16;;;7.79;55.28
21273;BME280;36726;52.328;10.552;2023-04-28T02:26:10;100620.03;;;7.80;55.26
21273;BME280;36726;52.328;10.552;2023-04-28T02:28:36;100625.38;;;7.83;54.85
21273;BME280;36726;52.328;10.552;2023-04-28T02:31:08;100619.25;;;7.84;54.90
21273;BME280;36726;52.328;10.552;2023-04-28T02:33:36;100619.28;;;7.85;55.32
21273;BME280;36726;52.328;10.552;2023-04-28T02:36:04;100613.16;;;7.86;54.82
21273;BME280;36726;52.328;10.552;2023-04-28T02:38:30;100621.09;;;7.88;54.85
21273;BME280;36726;52.328;10.552;2023-04-28T02:41:02;100609.75;;;7.89;54.82
21273;BME280;36726;52.328;10.552;2023-04-28T02:43:30;100609.75;;;7.89;54.48
21273;BME280;36726;52.328;10.552;2023-04-28T02:45:57;100603.53;;;7.87;54.59
21273;BME280;36726;52.328;10.552;2023-04-28T02:48:24;100597.34;;;7.85;54.36
21273;BME280;36726;52.328;10.552;2023-04-28T02:50:51;100591.16;;;7.83;54.60
21273;BME280;36726;52.328;10.552;2023-04-28T02:53:19;100591.09;;;7.80;54.60
21273;BME280;36726;52.328;10.552;2023-04-28T02:55:46;100590.19;;;7.79;54.46
21273;BME280;36726;52.328;10.552;2023-04-28T02:58:13;100583.09;;;7.77;54.70
21273;BME280;36726;52.328;10.552;2023-04-28T03:00:40;100579.56;;;7.76;54.66
21273;BME280;36726;52.328;10.552;2023-04-28T03:03:06;100584.78;;;7.75;55.07
21273;BME280;36726;52.328;10.552;2023-04-28T03:05:33;100583.91;;;7.74;55.10
21273;BME280;36726;52.328;10.552;2023-04-28T03:08:00;100572.47;;;7.72;55.38
21273;BME280;36726;52.328;10.552;2023-04-28T03:10:27;100573.25;;;7.70;55.21
21273;BME280;36726;52.328;10.552;2023-04-28T03:12:53;100566.22;;;7.69;55.20
21273;BME280;36726;52.328;10.552;2023-04-28T03:15:20;100565.31;;;7.67;55.62
21273;BME280;36726;52.328;10.552;2023-04-28T03:17:47;100549.41;;;7.64;55.68
21273;BME280;36726;52.328;10.552;2023-04-28T03:20:14;100552.88;;;7.61;55.73
21273;BME280;36726;52.328;10.552;2023-04-28T03:22:40;100546.69;;;7.59;55.69
21273;BME280;36726;52.328;10.552;2023-04-28T03:25:07;100553.66;;;7.57;55.99
21273;BME280;36726;52.328;10.552;2023-04-28T03:27:43;100552.72;;;7.55;55.84
21273;BME280;36726;52.328;10.552;2023-04-28T03:30:10;100546.56;;;7.55;56.10
21273;BME280;36726;52.328;10.552;2023-04-28T03:32:37;100549.19;;;7.55;56.13
21273;BME280;36726;52.328;10.552;2023-04-28T03:35:03;100546.63;;;7.56;56.27
21273;BME280;36726;52.328;10.552;2023-04-28T03:37:30;100534.41;;;7.58;56.40
21273;BME280;36726;52.328;10.552;2023-04-28T03:39:57;100531.78;;;7.60;56.31
21273;BME280;36726;52.328;10.552;2023-04-28T03:42:24;100515.13;;;7.61;56.06
21273;BME280;36726;52.328;10.552;2023-04-28T03:45:07;100523.97;;;7.63;56.27
21273;BME280;36726;52.328;10.552;2023-04-28T03:47:34;100514.31;;;7.63;56.30
21273;BME280;36726;52.328;10.552;2023-04-28T03:50:02;100514.34;;;7.65;55.85
21273;BME280;36726;52.328;10.552;2023-04-28T03:52:30;100516.13;;;7.66;56.33
21273;BME280;36726;52.328;10.552;2023-04-28T03:54:57;100517.03;;;7.66;56.20
21273;BME280;36726;52.328;10.552;2023-04-28T03:57:24;100511.72;;;7.65;56.13
21273;BME280;36726;52.328;10.552;2023-04-28T03:59:51;100502.91;;;7.63;56.50
21273;BME280;36726;52.328;10.552;2023-04-28T04:02:17;100511.59;;;7.60;56.65
21273;BME280;36726;52.328;10.552;2023-04-28T04:04:44;100505.34;;;7.55;56.78
21273;BME280;36726;52.328;10.552;2023-04-28T04:07:11;100509.72;;;7.55;56.75
21273;BME280;36726;52.328;10.552;2023-04-28T04:09:39;100505.31;;;7.54;57.04
21273;BME280;36726;52.328;10.552;2023-04-28T04:12:05;100506.25;;;7.56;56.84
21273;BME280;36726;52.328;10.552;2023-04-28T04:14:33;100508.94;;;7.59;56.93
21273;BME280;36726;52.328;10.552;2023-04-28T04:16:59;100507.22;;;7.61;57.08
21273;BME280;36726;52.328;10.552;2023-04-28T04:19:26;100505.47;;;7.60;57.51
21273;BME280;36726;52.328;10.552;2023-04-28T04:21:54;100501.03;;;7.59;57.29
21273;BME280;36726;52.328;10.552;2023-04-28T04:24:21;100504.56;;;7.59;57.60
21273;BME280;36726;52.328;10.552;2023-04-28T04:26:48;100500.22;;;7.60;57.42
21273;BME280;36726;52.328;10.552;2023-04-28T04:29:27;100494.06;;;7.61;57.59
21273;BME280;36726;52.328;10.552;2023-04-28T04:31:54;100493.28;;;7.63;57.93
21273;BME280;36726;52.328;10.552;2023-04-28T04:34:21;100492.38;;;7.63;57.39
21273;BME280;36726;52.328;10.552;2023-04-28T04:36:47;100490.63;;;7.63;58.02
21273;BME280;36726;52.328;10.552;2023-04-28T04:39:14;100484.44;;;7.61;57.89
21273;BME280;36726;52.328;10.552;2023-04-28T04:41:41;100485.34;;;7.62;57.82
21273;BME280;36726;52.328;10.552;2023-04-28T04:44:30;100487.88;;;7.59;57.79
21273;BME280;36726;52.328;10.552;2023-04-28T04:46:58;100485.22;;;7.57;58.13
21273;BME280;36726;52.328;10.552;2023-04-28T04:49:25;100484.31;;;7.57;58.38
21273;BME280;36726;52.328;10.552;2023-04-28T04:51:52;100487.84;;;7.57;58.61
21273;BME280;36726;52.328;10.552;2023-04-28T04:54:18;100484.38;;;7.58;58.43
21273;BME280;36726;52.328;10.552;2023-04-28T04:56:45;100478.28;;;7.61;58.75
21273;BME280;36726;52.328;10.552;2023-04-28T04:59:17;100479.25;;;7.64;58.71
21273;BME280;36726;52.328;10.552;2023-04-28T05:01:51;100478.50;;;7.70;58.75
21273;BME280;36726;52.328;10.552;2023-04-28T05:04:17;100478.63;;;7.76;58.90
21273;BME280;36726;52.328;10.552;2023-04-28T05:06:46;100476.25;;;7.86;58.81
21273;BME280;36726;52.328;10.552;2023-04-28T05:09:12;100465.09;;;7.98;58.49
21273;BME280;36726;52.328;10.552;2023-04-28T05:11:39;100467.97;;;8.10;58.06
21273;BME280;36726;52.328;10.552;2023-04-28T05:14:06;100464.66;;;8.20;58.12
21273;BME280;36726;52.328;10.552;2023-04-28T05:16:32;100465.81;;;8.31;58.20
21273;BME280;36726;52.328;10.552;2023-04-28T05:19:20;100470.47;;;8.44;57.84
21273;BME280;36726;52.328;10.552;2023-04-28T05:21:46;100465.41;;;8.56;57.63
21273;BME280;36726;52.328;10.552;2023-04-28T05:24:13;100464.81;;;8.69;57.67
21273;BME280;36726;52.328;10.552;2023-04-28T05:26:40;100457.97;;;8.80;57.76
21273;BME280;36726;52.328;10.552;2023-04-28T05:29:08;100459.09;;;8.93;57.07
21273;BME280;36726;52.328;10.552;2023-04-28T05:31:35;100466.38;;;9.07;57.77
21273;BME280;36726;52.328;10.552;2023-04-28T05:34:02;100467.50;;;9.21;57.53
21273;BME280;36726;52.328;10.552;2023-04-28T05:36:28;100462.47;;;9.36;56.58
21273;BME280;36726;52.328;10.552;2023-04-28T05:38:55;100453.00;;;9.51;56.64
21273;BME280;36726;52.328;10.552;2023-04-28T05:41:22;100454.09;;;9.65;56.61
21273;BME280;36726;52.328;10.552;2023-04-28T05:43:48;100447.22;;;9.77;56.17
21273;BME280;36726;52.328;10.552;2023-04-28T05:46:17;100447.44;;;9.91;56.88
21273;BME280;36726;52.328;10.552;2023-04-28T05:48:57;100440.56;;;10.06;56.06
21273;BME280;36726;52.328;10.552;2023-04-28T05:51:26;100439.91;;;10.18;55.81
21273;BME280;36726;52.328;10.552;2023-04-28T05:53:52;100451.50;;;10.29;55.08
21273;BME280;36726;52.328;10.552;2023-04-28T05:56:19;100440.97;;;10.38;55.00
21273;BME280;36726;52.328;10.552;2023-04-28T05:58:46;100436.69;;;10.46;54.80
21273;BME280;36726;52.328;10.552;2023-04-28T06:01:15;100436.78;;;10.55;55.04
21273;BME280;36726;52.328;10.552;2023-04-28T06:03:42;100442.16;;;10.64;54.74
21273;BME280;36726;52.328;10.552;2023-04-28T06:06:09;100431.69;;;10.73;54.06
21273;BME280;36726;52.328;10.552;2023-04-28T06:08:39;100429.97;;;10.80;53.97
21273;BME280;36726;52.328;10.552;2023-04-28T06:11:06;100427.41;;;10.86;53.60
21273;BME280;36726;52.328;10.552;2023-04-28T06:13:33;100430.13;;;10.93;53.41
21273;BME280;36726;52.328;10.552;2023-04-28T06:16:01;100431.09;;;11.03;53.09
21273;BME280;36726;52.328;10.552;2023-04-28T06:18:28;100432.94;;;11.11;53.47
21273;BME280;36726;52.328;10.552;2023-04-28T06:20:59;100428.56;;;11.19;53.48
21273;BME280;36726;52.328;10.552;2023-04-28T06:23:26;100422.47;;;11.26;52.44
21273;BME280;36726;52.328;10.552;2023-04-28T06:25:53;100432.22;;;11.33;53.42
21273;BME280;36726;52.328;10.552;2023-04-28T06:28:19;100419.84;;;11.35;52.81
21273;BME280;36726;52.328;10.552;2023-04-28T06:30:46;100419.91;;;11.41;52.81
21273;BME280;36726;52.328;10.552;2023-04-28T06:33:12;100407.69;;;11.62;55.98
21273;BME280;36726;52.328;10.552;2023-04-28T06:35:39;100415.06;;;12.11;54.38
21273;BME280;36726;52.328;10.552;2023-04-28T06:38:06;100421.41;;;12.70;53.66
21273;BME280;36726;52.328;10.552;2023-04-28T06:40:32;100416.19;;;13.17;51.62
21273;BME280;36726;52.328;10.552;2023-04-28T06:43:00;100409.94;;;13.59;51.15
21273;BME280;36726;52.328;10.552;2023-04-28T06:45:36;100405.41;;;13.92;49.76
21273;BME280;36726;52.328;10.552;2023-04-28T06:48:03;100406.19;;;14.15;48.86
21273;BME280;36726;52.328;10.552;2023-04-28T06:50:30;100397.31;;;14.31;48.85
21273;BME280;36726;52.328;10.552;2023-04-28T06:52:56;100397.25;;;14.37;47.67
21273;BME280;36726;52.328;10.552;2023-04-28T06:55:25;100395.53;;;14.26;46.88
21273;BME280;36726;52.328;10.552;2023-04-28T06:57:52;100393.84;;;14.10;46.93
21273;BME280;36726;52.328;10.552;2023-04-28T07:00:18;100393.03;;;13.90;47.36
21273;BME280;36726;52.328;10.552;2023-04-28T07:02:45;100391.31;;;13.74;48.12
21273;BME280;36726;52.328;10.552;2023-04-28T07:05:12;100391.34;;;13.59;48.03
21273;BME280;36726;52.328;10.552;2023-04-28T07:07:41;100388.69;;;13.43;47.98
21273;BME280;36726;52.328;10.552;2023-04-28T07:10:08;100396.69;;;13.34;47.96
21273;BME280;36726;52.328;10.552;2023-04-28T07:12:36;100396.69;;;13.28;48.36
21273;BME280;36726;52.328;10.552;2023-04-28T07:15:03;100394.91;;;13.26;48.61
21273;BME280;36726;52.328;10.552;2023-04-28T07:17:29;100382.53;;;13.29;49.04
21273;BME280;36726;52.328;10.552;2023-04-28T07:19:56;100386.94;;;13.36;48.84
21273;BME280;36726;52.328;10.552;2023-04-28T07:22:23;100376.31;;;13.42;48.59
21273;BME280;36726;52.328;10.552;2023-04-28T07:24:49;100376.28;;;13.47;48.54
21273;BME280;36726;52.328;10.552;2023-04-28T07:27:16;100375.41;;;13.45;48.31
21273;BME280;36726;52.328;10.552;2023-04-28T07:29:43;100375.41;;;13.42;48.05
21273;BME280;36726;52.328;10.552;2023-04-28T07:32:09;100386.03;;;13.49;48.14
21273;BME280;36726;52.328;10.552;2023-04-28T07:34:36;100379.81;;;13.58;48.12
21273;BME280;36726;52.328;10.552;2023-04-28T07:37:03;100375.38;;;13.65;47.71
21273;BME280;36726;52.328;10.552;2023-04-28T07:39:31;100373.56;;;13.77;47.15
21273;BME280;36726;52.328;10.552;2023-04-28T07:42:02;100372.63;;;13.92;47.30
21273;BME280;36726;52.328;10.552;2023-04-28T07:44:29;100374.38;;;14.00;46.47
21273;BME280;36726;52.328;10.552;2023-04-28T07:46:58;100375.22;;;14.07;46.87
21273;BME280;36726;52.328;10.552;2023-04-28T07:49:26;100375.22;;;14.11;46.17
21273;BME280;36726;52.328;10.552;2023-04-28T07:51:52;100372.53;;;14.19;46.83
21273;BME280;36726;52.328;10.552;2023-04-28T07:54:20;100373.38;;;14.28;46.79
21273;BME280;36726;52.328;10.552;2023-04-28T07:56:47;100369.78;;;14.35;46.78
21273;BME280;36726;52.328;10.552;2023-04-28T07:59:14;100369.75;;;14.41;45.83
21273;BME280;36726;52.328;10.552;2023-04-28T08:01:40;100362.59;;;14.48;46.30
21273;BME280;36726;52.328;10.552;2023-04-28T08:04:08;100359.88;;;14.57;46.59
21273;BME280;36726;52.328;10.552;2023-04-28T08:06:35;100362.50;;;14.68;45.76
21273;BME280;36726;52.328;10.552;2023-04-28T08:09:02;100358.84;;;14.79;45.49
21273;BME280;36726;52.328;10.552;2023-04-28T08:11:31;100361.44;;;14.88;45.29
21273;BME280;36726;52.328;10.552;2023-04-28T08:13:59;100357.81;;;14.98;45.48
21273;BME280;36726;52.328;10.552;2023-04-28T08:16:29;100363.06;;;15.07;44.45
21273;BME280;36726;52.328;10.552;2023-04-28T08:18:57;100363.00;;;15.16;44.88
21273;BME280;36726;52.328;10.552;2023-04-28T08:21:24;100359.34;;;15.22;44.36
21273;BME280;36726;52.328;10.552;2023-04-28T08:23:51;100364.59;;;15.32;45.13
21273;BME280;36726;52.328;10.552;2023-04-28T08:26:17;100362.75;;;15.39;44.77
21273;BME280;36726;52.328;10.552;2023-04-28T08:28:44;100360.09;;;15.42;44.39
21273;BME280;36726;52.328;10.552;2023-04-28T08:31:10;100368.94;;;15.45;44.35
21273;BME280;36726;52.328;10.552;2023-04-28T08:33:37;100362.75;;;15.43;43.66
21273;BME280;36726;52.328;10.552;2023-04-28T08:36:04;100358.34;;;15.41;43.74
21273;BME280;36726;52.328;10.552;2023-04-28T08:38:31;100358.34;;;15.35;43.96
21273;BME280;36726;52.328;10.552;2023-04-28T08:41:03;100361.06;;;15.32;43.93
21273;BME280;36726;52.328;10.552;2023-04-28T08:43:34;100362.81;;;15.33;44.54
21273;BME280;36726;52.328;10.552;2023-04-28T08:46:06;100367.28;;;15.32;43.98
21273;BME280;36726;52.328;10.552;2023-04-28T08:48:40;100368.97;;;15.36;43.54
21273;BME280;36726;52.328;10.552;2023-04-28T08:51:08;100364.50;;;15.40;44.29
21273;BME280;36726;52.328;10.552;2023-04-28T08:53:38;100363.59;;;15.45;44.52
21273;BME280;36726;52.328;10.552;2023-04-28T08:56:25;100357.38;;;15.46;44.50
21273;BME280;36726;52.328;10.552;2023-04-28T08:58:53;100354.69;;;15.49;44.97
21273;BME280;36726;52.328;10.552;2023-04-28T09:01:20;100349.31;;;15.52;44.89
21273;BME280;36726;52.328;10.552;2023-04-28T09:03:46;100349.25;;;15.58;45.04
21273;BME280;36726;52.328;10.552;2023-04-28T09:06:14;100342.94;;;15.69;45.63
21273;BME280;36726;52.328;10.552;2023-04-28T09:08:41;100335.66;;;15.83;45.03
21273;BME280;36726;52.328;10.552;2023-04-28T09:11:09;100340.69;;;16.04;44.69
21273;BME280;36726;52.328;10.552;2023-04-28T09:13:36;100334.22;;;16.21;43.67
21273;BME280;36726;52.328;10.552;2023-04-28T09:16:03;100337.50;;;16.41;42.97
21273;BME280;36726;52.328;10.552;2023-04-28T09:18:30;100330.16;;;16.60;43.82
21273;BME280;36726;52.328;10.552;2023-04-28T09:21:09;100332.56;;;16.77;43.51
21273;BME280;36726;52.328;10.552;2023-04-28T09:23:46;100326.13;;;16.88;42.42
21273;BME280;36726;52.328;10.552;2023-04-28T09:26:14;100317.91;;;17.00;42.62
21273;BME280;36726;52.328;10.552;2023-04-28T09:28:41;100315.88;;;17.14;41.63
21273;BME280;36726;52.328;10.552;2023-04-28T09:31:21;100321.78;;;17.33;41.83
21273;BME280;36726;52.328;10.552;2023-04-28T09:33:56;100310.81;;;17.48;42.62
21273;BME280;36726;52.328;10.552;2023-04-28T09:36:28;100306.09;;;17.60;42.49
21273;BME280;36726;52.328;10.552;2023-04-28T09:38:57;100308.59;;;17.70;41.72
21273;BME280;36726;52.328;10.552;2023-04-28T09:41:43;100306.59;;;17.81;41.86
21273;BME280;36726;52.328;10.552;2023-04-28T09:44:15;100302.94;;;17.85;41.38
21273;BME280;36726;52.328;10.552;2023-04-28T09:46:46;100304.53;;;17.93;41.27
21273;BME280;36726;52.328;10.552;2023-04-28T09:49:13;100295.53;;;17.97;41.49
21273;BME280;36726;52.328;10.552;2023-04-28T09:51:41;100301.69;;;18.01;41.45
21273;BME280;36726;52.328;10.552;2023-04-28T09:54:07;100299.81;;;18.06;41.44
21273;BME280;36726;52.328;10.552;2023-04-28T09:56:34;100292.66;;;18.06;40.28
21273;BME280;36726;52.328;10.552;2023-04-28T09:59:06;100290.91;;;18.04;41.25
21273;BME280;36726;52.328;10.552;2023-04-28T10:01:37;100286.63;;;17.97;41.27
21273;BME280;36726;52.328;10.552;2023-04-28T10:04:06;100278.75;;;17.91;40.37
21273;BME280;36726;52.328;10.552;2023-04-28T10:06:34;100276.97;;;17.90;41.26
21273;BME280;36726;52.328;10.552;2023-04-28T10:09:04;100273.44;;;17.88;41.09
21273;BME280;36726;52.328;10.552;2023-04-28T10:11:31;100285.00;;;17.90;41.30
21273;BME280;36726;52.328;10.552;2023-04-28T10:13:59;100280.59;;;17.86;41.36
21273;BME280;36726;52.328;10.552;2023-04-28T10:16:29;100278.94;;;17.82;41.48
21273;BME280;36726;52.328;10.552;2023-04-28T10:18:57;100277.22;;;17.78;42.13
21273;BME280;36726;52.328;10.552;2023-04-28T10:21:25;100279.88;;;17.79;42.64
21273;BME280;36726;52.328;10.552;2023-04-28T10:24:29;100281.84;;;17.70;42.90
21273;BME280;36726;52.328;10.552;2023-04-28T10:27:03;100267.75;;;17.62;43.76
21273;BME280;36726;52.328;10.552;2023-04-28T10:29:32;100269.81;;;17.49;43.61
21273;BME280;36726;52.328;10.552;2023-04-28T10:32:18;100260.94;;;17.44;44.08
21273;BME280;36726;52.328;10.552;2023-04-28T10:34:45;100263.59;;;17.44;43.88
21273;BME280;36726;52.328;10.552;2023-04-28T10:37:13;100260.00;;;17.46;44.12
21273;BME280;36726;52.328;10.552;2023-04-28T10:42:52;100259.94;;;17.52;44.49
21273;BME280;36726;52.328;10.552;2023-04-28T10:56:16;100251.59;;;17.66;44.66
21273;BME280;36726;52.328;10.552;2023-04-28T10:58:48;100245.31;;;17.69;44.94
21273;BME280;36726;52.328;10.552;2023-04-28T11:06:20;100232.81;;;17.71;44.96
21273;BME280;36726;52.328;10.552;2023-04-28T11:11:29;100231.66;;;17.81;44.71
21273;BME280;36726;52.328;10.552;2023-04-28T11:16:57;100240.81;;;17.71;45.26
21273;BME280;36726;52.328;10.552;2023-04-28T11:19:30;100241.88;;;17.64;45.56
21273;BME280;36726;52.328;10.552;2023-04-28T11:22:00;100250.03;;;17.56;45.35
21273;BME280;36726;52.328;10.552;2023-04-28T11:24:28;100242.91;;;17.55;45.85
21273;BME280;36726;52.328;10.552;2023-04-28T11:26:56;100245.63;;;17.53;45.36
21273;BME280;36726;52.328;10.552;2023-04-28T11:31:59;100236.88;;;17.45;45.80
21273;BME280;36726;52.328;10.552;2023-04-28T11:34:26;100232.44;;;17.43;46.13
21273;BME280;36726;52.328;10.552;2023-04-28T11:36:53;100232.47;;;17.41;46.46
21273;BME280;36726;52.328;10.552;2023-04-28T11:39:27;100242.31;;;17.39;46.22
21273;BME280;36726;52.328;10.552;2023-04-28T11:41:56;100234.22;;;17.42;46.40
21273;BME280;36726;52.328;10.552;2023-04-28T11:44:28;100234.28;;;17.41;46.59
21273;BME280;36726;52.328;10.552;2023-04-28T11:47:00;100235.91;;;17.49;46.04
21273;BME280;36726;52.328;10.552;2023-04-28T11:49:29;100224.13;;;17.59;45.90
21273;BME280;36726;52.328;10.552;2023-04-28T11:51:57;100230.25;;;17.65;46.49
21273;BME280;36726;52.328;10.552;2023-04-28T11:54:29;100229.34;;;17.64;47.07
21273;BME280;36726;52.328;10.552;2023-04-28T11:56:58;100233.69;;;17.70;47.26
21273;BME280;36726;52.328;10.552;2023-04-28T11:59:27;100223.75;;;17.76;47.32
21273;BME280;36726;52.328;10.552;2023-04-28T12:02:00;100226.97;;;17.92;47.71
21273;BME280;36726;52.328;10.552;2023-04-28T12:04:37;100205.28;;;18.04;47.38
21273;BME280;36726;52.328;10.552;2023-04-28T12:09:33;100205.34;;;18.01;46.98
21273;BME280;36726;52.328;10.552;2023-04-28T12:12:04;100206.25;;;18.01;47.29
21273;BME280;36726;52.328;10.552;2023-04-28T12:15:04;100207.19;;;17.99;47.01
21273;BME280;36726;52.328;10.552;2023-04-28T12:17:35;100204.75;;;17.88;47.19
21273;BME280;36726;52.328;10.552;2023-04-28T12:20:10;100201.56;;;17.73;47.17
21273;BME280;36726;52.328;10.552;2023-04-28T12:22:45;100199.06;;;17.64;47.66
21273;BME280;36726;52.328;10.552;2023-04-28T12:25:15;100191.09;;;17.60;47.55
21273;BME280;36726;52.328;10.552;2023-04-28T12:28:02;100199.06;;;17.62;47.64
21273;BME280;36726;52.328;10.552;2023-04-28T12:30:31;100196.63;;;17.51;47.67
21273;BME280;36726;52.328;10.552;2023-04-28T12:32:58;100193.22;;;17.43;48.01
21273;BME280;36726;52.328;10.552;2023-04-28T12:35:26;100193.34;;;17.37;48.14
21273;BME280;36726;52.328;10.552;2023-04-28T12:37:56;100187.22;;;17.32;48.22
21273;BME280;36726;52.328;10.552;2023-04-28T12:40:24;100194.50;;;17.24;48.72
21273;BME280;36726;52.328;10.552;2023-04-28T12:42:51;100192.09;;;17.12;48.66
21273;BME280;36726;52.328;10.552;2023-04-28T12:45:18;100195.75;;;17.07;49.34
21273;BME280;36726;52.328;10.552;2023-04-28T12:47:45;100194.00;;;17.06;49.34
21273;BME280;36726;52.328;10.552;2023-04-28T12:50:12;100184.25;;;17.03;49.48
21273;BME280;36726;52.328;10.552;2023-04-28T12:52:39;100185.22;;;16.99;49.72
21273;BME280;36726;52.328;10.552;2023-04-28T12:55:06;100184.44;;;16.93;50.47
21273;BME280;36726;52.328;10.552;2023-04-28T12:57:33;100189.13;;;16.82;50.33
21273;BME280;36726;52.328;10.552;2023-04-28T13:00:06;100184.78;;;16.75;50.36
21273;BME280;36726;52.328;10.552;2023-04-28T13:02:33;100184.00;;;16.68;50.71
21273;BME280;36726;52.328;10.552;2023-04-28T13:04:59;100171.72;;;16.59;50.53
21273;BME280;36726;52.328;10.552;2023-04-28T13:07:27;100170.00;;;16.57;50.85
21273;BME280;36726;52.328;10.552;2023-04-28T13:09:54;100168.22;;;16.56;51.00
21273;BME280;36726;52.328;10.552;2023-04-28T13:12:21;100172.66;;;16.57;51.61
21273;BME280;36726;52.328;10.552;2023-04-28T13:14:48;100172.69;;;16.54;51.45
21273;BME280;36726;52.328;10.552;2023-04-28T13:17:15;100172.66;;;16.57;52.01
21273;BME280;36726;52.328;10.552;2023-04-28T13:19:41;100172.66;;;16.57;51.38
21273;BME280;36726;52.328;10.552;2023-04-28T13:22:09;100169.06;;;16.58;51.03